sensor_id;sensor_type;location;lat;lon;timestamp;P1;durP1;ratioP1;P2;durP2;ratioP2
70866;SDS011;58487;53.474;49.470;2022-12-15T00:02:29;3.80;;;1.23;;
70866;SDS011;58487;53.474;49.470;2022-12-15T00:05:13;7.63;;;1.73;;
70866;SDS011;58487;53.474;49.470;2022-12-15T00:08:04;10.77;;;1.77;;
70866;SDS011;58487;53.474;49.470;2022-12-15T00:10:49;4.88;;;1.65;;
70866;SDS011;58487;53.474;49.470;2022-12-15T00:13:41;6.20;;;2.08;;
70866;SDS011;58487;53.474;49.470;2022-12-15T00:16:26;6.80;;;1.80;;
70866;SDS011;58487;53.474;49.470;2022-12-15T00:19:10;7.82;;;1.65;;
70866;SDS011;58487;53.474;49.470;2022-12-15T00:21:55;8.20;;;1.95;;
70866;SDS011;58487;53.474;49.470;2022-12-15T00:24:39;5.78;;;1.63;;
70866;SDS011;58487;53.474;49.470;2022-12-15T00:27:23;5.57;;;1.70;;
70866;SDS011;58487;53.474;49.470;2022-12-15T00:30:08;5.70;;;1.90;;
70866;SDS011;58487;53.474;49.470;2022-12-15T00:32:54;6.40;;;1.63;;
70866;SDS011;58487;53.474;49.470;2022-12-15T00:35:38;8.52;;;2.60;;
70866;SDS011;58487;53.474;49.470;2022-12-15T00:38:22;8.02;;;2.30;;
70866;SDS011;58487;53.474;49.470;2022-12-15T00:41:07;6.03;;;2.33;;
70866;SDS011;58487;53.474;49.470;2022-12-15T00:43:34;5.83;;;2.20;;
70866;SDS011;58487;53.474;49.470;2022-12-15T00:46:00;6.72;;;2.67;;
70866;SDS011;58487;53.474;49.470;2022-12-15T00:48:46;7.75;;;2.55;;
70866;SDS011;58487;53.474;49.470;2022-12-15T00:51:12;8.52;;;2.35;;
70866;SDS011;58487;53.474;49.470;2022-12-15T00:53:39;8.13;;;2.38;;
70866;SDS011;58487;53.474;49.470;2022-12-15T00:56:24;10.53;;;3.20;;
70866;SDS011;58487;53.474;49.470;2022-12-15T00:59:09;5.60;;;1.70;;
70866;SDS011;58487;53.474;49.470;2022-12-15T01:01:54;12.50;;;4.45;;
70866;SDS011;58487;53.474;49.470;2022-12-15T01:04:38;6.78;;;2.90;;
70866;SDS011;58487;53.474;49.470;2022-12-15T01:07:23;7.45;;;2.33;;
70866;SDS011;58487;53.474;49.470;2022-12-15T01:10:07;5.77;;;1.90;;
70866;SDS011;58487;53.474;49.470;2022-12-15T01:12:52;7.45;;;2.58;;
70866;SDS011;58487;53.474;49.470;2022-12-15T01:15:36;6.25;;;1.70;;
70866;SDS011;58487;53.474;49.470;2022-12-15T01:18:21;6.28;;;2.42;;
70866;SDS011;58487;53.474;49.470;2022-12-15T01:21:07;6.50;;;1.95;;
70866;SDS011;58487;53.474;49.470;2022-12-15T01:23:34;6.67;;;2.17;;
70866;SDS011;58487;53.474;49.470;2022-12-15T01:26:01;7.30;;;2.38;;
70866;SDS011;58487;53.474;49.470;2022-12-15T01:28:27;6.85;;;1.92;;
70866;SDS011;58487;53.474;49.470;2022-12-15T01:30:53;8.48;;;2.60;;
70866;SDS011;58487;53.474;49.470;2022-12-15T01:33:20;7.40;;;2.65;;
70866;SDS011;58487;53.474;49.470;2022-12-15T01:35:59;8.47;;;2.60;;
70866;SDS011;58487;53.474;49.470;2022-12-15T01:38:26;7.47;;;2.50;;
70866;SDS011;58487;53.474;49.470;2022-12-15T01:40:54;5.95;;;2.20;;
70866;SDS011;58487;53.474;49.470;2022-12-15T01:43:28;6.90;;;2.30;;
70866;SDS011;58487;53.474;49.470;2022-12-15T01:45:59;7.80;;;2.20;;
70866;SDS011;58487;53.474;49.470;2022-12-15T01:51:14;6.28;;;2.20;;
70866;SDS011;58487;53.474;49.470;2022-12-15T01:56:59;7.60;;;2.17;;
70866;SDS011;58487;53.474;49.470;2022-12-15T01:59:28;11.32;;;3.20;;
70866;SDS011;58487;53.474;49.470;2022-12-15T02:01:58;9.47;;;2.33;;
70866;SDS011;58487;53.474;49.470;2022-12-15T02:04:24;9.65;;;2.70;;
70866;SDS011;58487;53.474;49.470;2022-12-15T02:06:51;8.73;;;2.35;;
70866;SDS011;58487;53.474;49.470;2022-12-15T02:09:17;9.13;;;3.33;;
70866;SDS011;58487;53.474;49.470;2022-12-15T02:18:18;11.43;;;1.90;;
70866;SDS011;58487;53.474;49.470;2022-12-15T02:23:34;7.13;;;2.40;;
70866;SDS011;58487;53.474;49.470;2022-12-15T02:26:44;7.38;;;2.95;;
70866;SDS011;58487;53.474;49.470;2022-12-15T02:32:11;7.78;;;1.90;;
70866;SDS011;58487;53.474;49.470;2022-12-15T02:34:51;7.13;;;2.70;;
70866;SDS011;58487;53.474;49.470;2022-12-15T02:37:27;9.02;;;2.72;;
70866;SDS011;58487;53.474;49.470;2022-12-15T02:39:56;7.53;;;2.50;;
70866;SDS011;58487;53.474;49.470;2022-12-15T02:42:22;7.40;;;2.20;;
70866;SDS011;58487;53.474;49.470;2022-12-15T02:44:52;6.65;;;2.58;;
70866;SDS011;58487;53.474;49.470;2022-12-15T02:56:23;7.27;;;2.73;;
70866;SDS011;58487;53.474;49.470;2022-12-15T02:59:08;5.18;;;1.80;;
70866;SDS011;58487;53.474;49.470;2022-12-15T03:01:45;6.60;;;1.73;;
70866;SDS011;58487;53.474;49.470;2022-12-15T03:04:17;6.88;;;2.17;;
70866;SDS011;58487;53.474;49.470;2022-12-15T03:06:44;7.20;;;1.95;;
70866;SDS011;58487;53.474;49.470;2022-12-15T03:09:17;7.37;;;2.97;;
70866;SDS011;58487;53.474;49.470;2022-12-15T03:11:43;8.65;;;3.03;;
70866;SDS011;58487;53.474;49.470;2022-12-15T03:14:09;8.45;;;2.00;;
70866;SDS011;58487;53.474;49.470;2022-12-15T03:16:35;8.25;;;2.42;;
70866;SDS011;58487;53.474;49.470;2022-12-15T03:19:01;10.18;;;3.35;;
70866;SDS011;58487;53.474;49.470;2022-12-15T03:21:27;7.33;;;2.23;;
70866;SDS011;58487;53.474;49.470;2022-12-15T03:23:53;9.48;;;2.67;;
70866;SDS011;58487;53.474;49.470;2022-12-15T03:26:19;9.52;;;2.47;;
70866;SDS011;58487;53.474;49.470;2022-12-15T03:28:46;9.60;;;3.35;;
70866;SDS011;58487;53.474;49.470;2022-12-15T03:31:12;10.27;;;2.63;;
70866;SDS011;58487;53.474;49.470;2022-12-15T03:33:38;8.23;;;2.72;;
70866;SDS011;58487;53.474;49.470;2022-12-15T03:36:04;9.95;;;2.67;;
70866;SDS011;58487;53.474;49.470;2022-12-15T03:38:30;8.02;;;2.72;;
70866;SDS011;58487;53.474;49.470;2022-12-15T03:40:56;6.75;;;2.47;;
70866;SDS011;58487;53.474;49.470;2022-12-15T03:43:22;9.77;;;2.50;;
70866;SDS011;58487;53.474;49.470;2022-12-15T03:45:48;9.30;;;2.95;;
70866;SDS011;58487;53.474;49.470;2022-12-15T03:48:14;6.97;;;2.35;;
70866;SDS011;58487;53.474;49.470;2022-12-15T03:50:40;8.82;;;2.70;;
70866;SDS011;58487;53.474;49.470;2022-12-15T03:53:06;6.95;;;2.72;;
70866;SDS011;58487;53.474;49.470;2022-12-15T03:55:32;10.23;;;2.93;;
70866;SDS011;58487;53.474;49.470;2022-12-15T03:57:59;8.07;;;2.60;;
70866;SDS011;58487;53.474;49.470;2022-12-15T04:00:25;7.65;;;2.55;;
70866;SDS011;58487;53.474;49.470;2022-12-15T04:02:51;8.35;;;2.60;;
70866;SDS011;58487;53.474;49.470;2022-12-15T04:07:53;10.77;;;3.63;;
70866;SDS011;58487;53.474;49.470;2022-12-15T04:10:21;10.00;;;3.63;;
70866;SDS011;58487;53.474;49.470;2022-12-15T04:12:48;9.95;;;2.83;;
70866;SDS011;58487;53.474;49.470;2022-12-15T04:15:20;6.80;;;2.38;;
70866;SDS011;58487;53.474;49.470;2022-12-15T04:17:46;9.45;;;3.30;;
70866;SDS011;58487;53.474;49.470;2022-12-15T04:20:12;11.63;;;3.67;;
70866;SDS011;58487;53.474;49.470;2022-12-15T04:22:39;5.90;;;2.22;;
70866;SDS011;58487;53.474;49.470;2022-12-15T04:25:08;11.02;;;2.80;;
70866;SDS011;58487;53.474;49.470;2022-12-15T04:27:57;7.55;;;2.80;;
70866;SDS011;58487;53.474;49.470;2022-12-15T04:31:15;8.25;;;2.65;;
70866;SDS011;58487;53.474;49.470;2022-12-15T04:33:54;8.47;;;2.27;;
70866;SDS011;58487;53.474;49.470;2022-12-15T04:36:41;5.85;;;2.13;;
70866;SDS011;58487;53.474;49.470;2022-12-15T04:39:27;11.95;;;3.40;;
70866;SDS011;58487;53.474;49.470;2022-12-15T04:42:12;10.85;;;2.83;;
70866;SDS011;58487;53.474;49.470;2022-12-15T04:44:59;8.15;;;2.83;;
70866;SDS011;58487;53.474;49.470;2022-12-15T04:47:46;10.23;;;3.47;;
70866;SDS011;58487;53.474;49.470;2022-12-15T04:50:32;8.38;;;2.70;;
70866;SDS011;58487;53.474;49.470;2022-12-15T04:53:17;9.70;;;3.20;;
70866;SDS011;58487;53.474;49.470;2022-12-15T04:56:02;10.75;;;3.33;;
70866;SDS011;58487;53.474;49.470;2022-12-15T04:58:47;13.98;;;3.47;;
70866;SDS011;58487;53.474;49.470;2022-12-15T05:01:32;7.50;;;2.63;;
70866;SDS011;58487;53.474;49.470;2022-12-15T05:04:17;7.13;;;2.75;;
70866;SDS011;58487;53.474;49.470;2022-12-15T05:07:02;10.80;;;2.95;;
70866;SDS011;58487;53.474;49.470;2022-12-15T05:09:47;9.25;;;3.10;;
70866;SDS011;58487;53.474;49.470;2022-12-15T05:12:31;9.02;;;3.20;;
70866;SDS011;58487;53.474;49.470;2022-12-15T05:15:15;13.00;;;5.53;;
70866;SDS011;58487;53.474;49.470;2022-12-15T05:18:00;10.07;;;3.28;;
70866;SDS011;58487;53.474;49.470;2022-12-15T05:20:44;8.40;;;3.25;;
70866;SDS011;58487;53.474;49.470;2022-12-15T05:23:28;14.38;;;3.55;;
70866;SDS011;58487;53.474;49.470;2022-12-15T05:26:13;11.90;;;3.30;;
70866;SDS011;58487;53.474;49.470;2022-12-15T05:28:57;8.57;;;2.60;;
70866;SDS011;58487;53.474;49.470;2022-12-15T05:31:41;8.73;;;3.22;;
70866;SDS011;58487;53.474;49.470;2022-12-15T05:34:20;8.25;;;3.17;;
70866;SDS011;58487;53.474;49.470;2022-12-15T05:36:47;11.57;;;3.30;;
70866;SDS011;58487;53.474;49.470;2022-12-15T05:39:14;11.38;;;3.92;;
70866;SDS011;58487;53.474;49.470;2022-12-15T05:41:40;7.50;;;3.10;;
70866;SDS011;58487;53.474;49.470;2022-12-15T05:44:06;10.05;;;3.42;;
70866;SDS011;58487;53.474;49.470;2022-12-15T05:46:32;10.55;;;3.55;;
70866;SDS011;58487;53.474;49.470;2022-12-15T05:49:00;11.73;;;4.00;;
70866;SDS011;58487;53.474;49.470;2022-12-15T05:51:30;9.32;;;3.75;;
70866;SDS011;58487;53.474;49.470;2022-12-15T05:53:56;10.50;;;3.93;;
70866;SDS011;58487;53.474;49.470;2022-12-15T05:56:23;10.57;;;3.33;;
70866;SDS011;58487;53.474;49.470;2022-12-15T05:58:50;17.45;;;5.88;;
70866;SDS011;58487;53.474;49.470;2022-12-15T06:01:17;10.55;;;3.42;;
70866;SDS011;58487;53.474;49.470;2022-12-15T06:03:43;12.85;;;3.97;;
70866;SDS011;58487;53.474;49.470;2022-12-15T06:06:10;8.07;;;2.87;;
70866;SDS011;58487;53.474;49.470;2022-12-15T06:08:38;12.57;;;4.13;;
70866;SDS011;58487;53.474;49.470;2022-12-15T06:11:05;10.35;;;3.65;;
70866;SDS011;58487;53.474;49.470;2022-12-15T06:13:32;14.38;;;4.30;;
70866;SDS011;58487;53.474;49.470;2022-12-15T06:16:11;13.75;;;4.35;;
70866;SDS011;58487;53.474;49.470;2022-12-15T06:18:41;10.40;;;3.53;;
70866;SDS011;58487;53.474;49.470;2022-12-15T06:21:16;9.98;;;3.55;;
70866;SDS011;58487;53.474;49.470;2022-12-15T06:23:44;12.15;;;4.20;;
70866;SDS011;58487;53.474;49.470;2022-12-15T06:26:16;10.68;;;3.72;;
70866;SDS011;58487;53.474;49.470;2022-12-15T06:28:45;10.48;;;3.55;;
70866;SDS011;58487;53.474;49.470;2022-12-15T06:31:11;10.10;;;3.83;;
70866;SDS011;58487;53.474;49.470;2022-12-15T06:33:38;9.95;;;3.78;;
70866;SDS011;58487;53.474;49.470;2022-12-15T06:36:08;10.88;;;3.25;;
70866;SDS011;58487;53.474;49.470;2022-12-15T06:38:36;9.15;;;3.50;;
70866;SDS011;58487;53.474;49.470;2022-12-15T06:41:03;13.35;;;4.18;;
70866;SDS011;58487;53.474;49.470;2022-12-15T06:43:31;12.93;;;3.57;;
70866;SDS011;58487;53.474;49.470;2022-12-15T06:45:58;10.32;;;3.08;;
70866;SDS011;58487;53.474;49.470;2022-12-15T06:48:24;10.63;;;3.92;;
70866;SDS011;58487;53.474;49.470;2022-12-15T06:50:51;11.90;;;3.58;;
70866;SDS011;58487;53.474;49.470;2022-12-15T06:53:18;15.30;;;4.20;;
70866;SDS011;58487;53.474;49.470;2022-12-15T06:55:45;12.37;;;3.93;;
70866;SDS011;58487;53.474;49.470;2022-12-15T06:58:12;11.18;;;3.55;;
70866;SDS011;58487;53.474;49.470;2022-12-15T07:00:40;10.70;;;3.38;;
70866;SDS011;58487;53.474;49.470;2022-12-15T07:03:14;9.75;;;3.53;;
70866;SDS011;58487;53.474;49.470;2022-12-15T07:05:42;10.82;;;3.47;;
70866;SDS011;58487;53.474;49.470;2022-12-15T07:08:10;10.93;;;3.83;;
70866;SDS011;58487;53.474;49.470;2022-12-15T07:10:43;11.15;;;3.92;;
70866;SDS011;58487;53.474;49.470;2022-12-15T07:13:09;11.35;;;4.15;;
70866;SDS011;58487;53.474;49.470;2022-12-15T07:15:37;12.18;;;4.20;;
70866;SDS011;58487;53.474;49.470;2022-12-15T07:18:03;8.23;;;3.28;;
70866;SDS011;58487;53.474;49.470;2022-12-15T07:20:29;8.37;;;3.30;;
70866;SDS011;58487;53.474;49.470;2022-12-15T07:22:56;12.45;;;4.38;;
70866;SDS011;58487;53.474;49.470;2022-12-15T07:25:22;11.35;;;4.18;;
70866;SDS011;58487;53.474;49.470;2022-12-15T07:27:48;11.20;;;4.18;;
70866;SDS011;58487;53.474;49.470;2022-12-15T07:30:14;12.60;;;4.57;;
70866;SDS011;58487;53.474;49.470;2022-12-15T07:32:42;11.83;;;4.70;;
70866;SDS011;58487;53.474;49.470;2022-12-15T07:35:09;11.10;;;4.05;;
70866;SDS011;58487;53.474;49.470;2022-12-15T07:37:35;15.00;;;4.38;;
70866;SDS011;58487;53.474;49.470;2022-12-15T07:40:02;14.88;;;6.05;;
70866;SDS011;58487;53.474;49.470;2022-12-15T07:42:30;13.82;;;4.63;;
70866;SDS011;58487;53.474;49.470;2022-12-15T07:44:56;11.17;;;4.40;;
70866;SDS011;58487;53.474;49.470;2022-12-15T07:47:23;12.82;;;4.80;;
70866;SDS011;58487;53.474;49.470;2022-12-15T07:49:49;11.15;;;4.07;;
70866;SDS011;58487;53.474;49.470;2022-12-15T07:52:15;12.95;;;4.22;;
70866;SDS011;58487;53.474;49.470;2022-12-15T07:54:41;10.38;;;4.13;;
70866;SDS011;58487;53.474;49.470;2022-12-15T07:57:07;14.63;;;4.67;;
70866;SDS011;58487;53.474;49.470;2022-12-15T07:59:33;13.45;;;4.28;;
70866;SDS011;58487;53.474;49.470;2022-12-15T08:02:00;14.15;;;3.90;;
70866;SDS011;58487;53.474;49.470;2022-12-15T08:04:28;11.45;;;4.05;;
70866;SDS011;58487;53.474;49.470;2022-12-15T08:06:55;15.80;;;4.60;;
70866;SDS011;58487;53.474;49.470;2022-12-15T08:09:22;10.00;;;3.75;;
70866;SDS011;58487;53.474;49.470;2022-12-15T08:11:48;12.45;;;3.75;;
70866;SDS011;58487;53.474;49.470;2022-12-15T08:14:15;10.13;;;3.90;;
70866;SDS011;58487;53.474;49.470;2022-12-15T08:16:42;11.00;;;3.88;;
70866;SDS011;58487;53.474;49.470;2022-12-15T08:19:10;10.63;;;3.90;;
70866;SDS011;58487;53.474;49.470;2022-12-15T08:21:38;13.35;;;4.20;;
70866;SDS011;58487;53.474;49.470;2022-12-15T08:24:05;10.73;;;4.53;;
70866;SDS011;58487;53.474;49.470;2022-12-15T08:26:33;10.35;;;3.83;;
70866;SDS011;58487;53.474;49.470;2022-12-15T08:29:00;11.25;;;3.85;;
70866;SDS011;58487;53.474;49.470;2022-12-15T08:31:28;11.80;;;4.00;;
70866;SDS011;58487;53.474;49.470;2022-12-15T08:33:56;11.75;;;4.57;;
70866;SDS011;58487;53.474;49.470;2022-12-15T08:36:22;16.27;;;4.78;;
70866;SDS011;58487;53.474;49.470;2022-12-15T08:38:48;11.73;;;4.30;;
70866;SDS011;58487;53.474;49.470;2022-12-15T08:41:15;15.10;;;5.45;;
70866;SDS011;58487;53.474;49.470;2022-12-15T08:43:44;11.80;;;5.00;;
70866;SDS011;58487;53.474;49.470;2022-12-15T08:46:11;12.63;;;3.95;;
70866;SDS011;58487;53.474;49.470;2022-12-15T08:48:38;11.00;;;3.90;;
70866;SDS011;58487;53.474;49.470;2022-12-15T08:51:04;11.20;;;3.95;;
70866;SDS011;58487;53.474;49.470;2022-12-15T08:53:30;17.65;;;6.25;;
70866;SDS011;58487;53.474;49.470;2022-12-15T08:56:03;15.40;;;6.63;;
70866;SDS011;58487;53.474;49.470;2022-12-15T08:58:31;13.00;;;4.35;;
70866;SDS011;58487;53.474;49.470;2022-12-15T09:01:01;14.60;;;4.97;;
70866;SDS011;58487;53.474;49.470;2022-12-15T09:03:49;15.15;;;5.32;;
70866;SDS011;58487;53.474;49.470;2022-12-15T09:06:19;13.73;;;4.97;;
70866;SDS011;58487;53.474;49.470;2022-12-15T09:08:47;13.23;;;5.10;;
70866;SDS011;58487;53.474;49.470;2022-12-15T09:11:13;15.55;;;5.00;;
70866;SDS011;58487;53.474;49.470;2022-12-15T09:13:39;12.40;;;5.30;;
70866;SDS011;58487;53.474;49.470;2022-12-15T09:16:06;18.30;;;5.75;;
70866;SDS011;58487;53.474;49.470;2022-12-15T09:18:37;15.50;;;4.90;;
70866;SDS011;58487;53.474;49.470;2022-12-15T09:21:09;13.53;;;4.60;;
70866;SDS011;58487;53.474;49.470;2022-12-15T09:23:36;11.15;;;4.10;;
70866;SDS011;58487;53.474;49.470;2022-12-15T09:26:04;12.30;;;5.15;;
70866;SDS011;58487;53.474;49.470;2022-12-15T09:28:32;16.10;;;6.70;;
70866;SDS011;58487;53.474;49.470;2022-12-15T09:31:05;14.27;;;5.40;;
70866;SDS011;58487;53.474;49.470;2022-12-15T09:33:34;13.23;;;4.63;;
70866;SDS011;58487;53.474;49.470;2022-12-15T09:36:00;14.60;;;5.03;;
70866;SDS011;58487;53.474;49.470;2022-12-15T09:38:27;16.05;;;5.20;;
70866;SDS011;58487;53.474;49.470;2022-12-15T09:40:53;14.88;;;4.57;;
70866;SDS011;58487;53.474;49.470;2022-12-15T09:43:22;12.10;;;4.50;;
70866;SDS011;58487;53.474;49.470;2022-12-15T09:45:51;13.80;;;4.93;;
70866;SDS011;58487;53.474;49.470;2022-12-15T09:48:27;14.43;;;5.38;;
70866;SDS011;58487;53.474;49.470;2022-12-15T09:51:00;12.45;;;4.82;;
70866;SDS011;58487;53.474;49.470;2022-12-15T09:53:29;11.88;;;4.28;;
70866;SDS011;58487;53.474;49.470;2022-12-15T09:55:59;12.80;;;5.00;;
70866;SDS011;58487;53.474;49.470;2022-12-15T09:58:37;12.87;;;4.13;;
70866;SDS011;58487;53.474;49.470;2022-12-15T10:06:42;10.40;;;4.13;;
70866;SDS011;58487;53.474;49.470;2022-12-15T10:09:16;11.90;;;4.15;;
70866;SDS011;58487;53.474;49.470;2022-12-15T10:14:30;12.75;;;4.50;;
70866;SDS011;58487;53.474;49.470;2022-12-15T10:22:23;9.30;;;4.07;;
70866;SDS011;58487;53.474;49.470;2022-12-15T10:24:52;11.17;;;3.60;;
70866;SDS011;58487;53.474;49.470;2022-12-15T10:27:32;10.73;;;3.85;;
70866;SDS011;58487;53.474;49.470;2022-12-15T10:30:11;8.20;;;3.53;;
70866;SDS011;58487;53.474;49.470;2022-12-15T10:35:14;11.18;;;4.00;;
70866;SDS011;58487;53.474;49.470;2022-12-15T10:37:42;9.40;;;3.57;;
70866;SDS011;58487;53.474;49.470;2022-12-15T10:40:18;11.82;;;4.10;;
70866;SDS011;58487;53.474;49.470;2022-12-15T10:43:10;11.35;;;3.67;;
70866;SDS011;58487;53.474;49.470;2022-12-15T10:46:00;11.75;;;3.58;;
70866;SDS011;58487;53.474;49.470;2022-12-15T10:48:26;10.98;;;3.85;;
70866;SDS011;58487;53.474;49.470;2022-12-15T10:51:05;9.70;;;3.83;;
70866;SDS011;58487;53.474;49.470;2022-12-15T10:53:40;10.50;;;3.95;;
70866;SDS011;58487;53.474;49.470;2022-12-15T10:56:12;9.90;;;4.10;;
70866;SDS011;58487;53.474;49.470;2022-12-15T10:58:53;10.52;;;3.72;;
70866;SDS011;58487;53.474;49.470;2022-12-15T11:01:25;12.15;;;4.13;;
70866;SDS011;58487;53.474;49.470;2022-12-15T11:03:53;10.37;;;4.53;;
70866;SDS011;58487;53.474;49.470;2022-12-15T11:06:33;11.30;;;4.30;;
70866;SDS011;58487;53.474;49.470;2022-12-15T11:09:23;11.18;;;4.38;;
70866;SDS011;58487;53.474;49.470;2022-12-15T11:11:58;9.75;;;4.10;;
70866;SDS011;58487;53.474;49.470;2022-12-15T11:14:44;10.05;;;4.25;;
70866;SDS011;58487;53.474;49.470;2022-12-15T11:17:16;13.17;;;4.40;;
70866;SDS011;58487;53.474;49.470;2022-12-15T11:19:48;13.65;;;4.38;;
70866;SDS011;58487;53.474;49.470;2022-12-15T11:25:14;12.18;;;4.80;;
70866;SDS011;58487;53.474;49.470;2022-12-15T11:27:49;14.30;;;5.55;;
70866;SDS011;58487;53.474;49.470;2022-12-15T11:30:19;14.63;;;5.53;;
70866;SDS011;58487;53.474;49.470;2022-12-15T11:32:56;11.93;;;5.10;;
70866;SDS011;58487;53.474;49.470;2022-12-15T11:35:26;11.77;;;4.57;;
70866;SDS011;58487;53.474;49.470;2022-12-15T11:38:15;16.40;;;4.50;;
70866;SDS011;58487;53.474;49.470;2022-12-15T11:40:52;15.00;;;5.68;;
70866;SDS011;58487;53.474;49.470;2022-12-15T11:51:15;14.60;;;6.15;;
70866;SDS011;58487;53.474;49.470;2022-12-15T11:56:41;16.60;;;6.20;;
70866;SDS011;58487;53.474;49.470;2022-12-15T12:07:20;19.30;;;8.50;;
70866;SDS011;58487;53.474;49.470;2022-12-15T12:12:49;21.77;;;8.55;;
70866;SDS011;58487;53.474;49.470;2022-12-15T12:15:32;19.05;;;7.03;;
70866;SDS011;58487;53.474;49.470;2022-12-15T12:18:25;15.50;;;6.88;;
70866;SDS011;58487;53.474;49.470;2022-12-15T12:20:55;17.42;;;8.27;;
70866;SDS011;58487;53.474;49.470;2022-12-15T12:26:03;16.65;;;7.32;;
70866;SDS011;58487;53.474;49.470;2022-12-15T12:28:44;20.50;;;8.82;;
70866;SDS011;58487;53.474;49.470;2022-12-15T12:31:28;14.00;;;5.22;;
70866;SDS011;58487;53.474;49.470;2022-12-15T12:34:01;12.13;;;4.63;;
70866;SDS011;58487;53.474;49.470;2022-12-15T12:36:33;19.17;;;5.70;;
70866;SDS011;58487;53.474;49.470;2022-12-15T12:39:00;11.43;;;3.90;;
70866;SDS011;58487;53.474;49.470;2022-12-15T12:44:09;9.77;;;3.70;;
70866;SDS011;58487;53.474;49.470;2022-12-15T12:47:06;11.40;;;4.22;;
70866;SDS011;58487;53.474;49.470;2022-12-15T12:49:41;11.73;;;4.23;;
70866;SDS011;58487;53.474;49.470;2022-12-15T12:52:18;15.18;;;5.53;;
70866;SDS011;58487;53.474;49.470;2022-12-15T12:54:54;24.48;;;5.72;;
70866;SDS011;58487;53.474;49.470;2022-12-15T12:57:33;16.67;;;6.03;;
70866;SDS011;58487;53.474;49.470;2022-12-15T13:00:02;13.88;;;6.07;;
70866;SDS011;58487;53.474;49.470;2022-12-15T13:02:40;13.07;;;5.07;;
70866;SDS011;58487;53.474;49.470;2022-12-15T13:05:25;16.55;;;5.82;;
70866;SDS011;58487;53.474;49.470;2022-12-15T13:10:38;13.27;;;4.55;;
70866;SDS011;58487;53.474;49.470;2022-12-15T13:15:43;17.77;;;5.70;;
70866;SDS011;58487;53.474;49.470;2022-12-15T13:20:40;16.52;;;5.80;;
70866;SDS011;58487;53.474;49.470;2022-12-15T13:25:45;16.40;;;5.57;;
70866;SDS011;58487;53.474;49.470;2022-12-15T13:28:37;9.40;;;3.50;;
70866;SDS011;58487;53.474;49.470;2022-12-15T13:52:08;11.90;;;4.35;;
70866;SDS011;58487;53.474;49.470;2022-12-15T13:54:52;12.37;;;4.23;;
70866;SDS011;58487;53.474;49.470;2022-12-15T13:57:20;11.38;;;4.20;;
70866;SDS011;58487;53.474;49.470;2022-12-15T13:59:50;11.75;;;4.50;;
70866;SDS011;58487;53.474;49.470;2022-12-15T14:02:31;12.68;;;4.07;;
70866;SDS011;58487;53.474;49.470;2022-12-15T14:05:03;13.20;;;4.20;;
70866;SDS011;58487;53.474;49.470;2022-12-15T14:07:42;14.27;;;4.00;;
70866;SDS011;58487;53.474;49.470;2022-12-15T14:10:21;9.70;;;3.85;;
70866;SDS011;58487;53.474;49.470;2022-12-15T14:12:48;13.23;;;4.60;;
70866;SDS011;58487;53.474;49.470;2022-12-15T14:15:18;11.82;;;4.50;;
70866;SDS011;58487;53.474;49.470;2022-12-15T14:17:50;13.32;;;4.68;;
70866;SDS011;58487;53.474;49.470;2022-12-15T14:20:20;12.43;;;4.40;;
70866;SDS011;58487;53.474;49.470;2022-12-15T14:22:48;12.98;;;4.97;;
70866;SDS011;58487;53.474;49.470;2022-12-15T14:25:20;20.00;;;7.93;;
70866;SDS011;58487;53.474;49.470;2022-12-15T14:27:49;16.23;;;6.00;;
70866;SDS011;58487;53.474;49.470;2022-12-15T14:30:25;14.32;;;5.80;;
70866;SDS011;58487;53.474;49.470;2022-12-15T14:35:24;13.93;;;5.05;;
70866;SDS011;58487;53.474;49.470;2022-12-15T14:37:53;15.57;;;5.35;;
70866;SDS011;58487;53.474;49.470;2022-12-15T14:40:21;16.58;;;5.53;;
70866;SDS011;58487;53.474;49.470;2022-12-15T14:42:49;18.25;;;7.70;;
70866;SDS011;58487;53.474;49.470;2022-12-15T14:45:21;16.53;;;5.57;;
70866;SDS011;58487;53.474;49.470;2022-12-15T14:47:54;15.65;;;5.68;;
70866;SDS011;58487;53.474;49.470;2022-12-15T14:50:23;15.50;;;4.82;;
70866;SDS011;58487;53.474;49.470;2022-12-15T14:52:57;14.82;;;5.07;;
70866;SDS011;58487;53.474;49.470;2022-12-15T14:55:31;14.48;;;4.82;;
70866;SDS011;58487;53.474;49.470;2022-12-15T14:58:00;11.57;;;4.07;;
70866;SDS011;58487;53.474;49.470;2022-12-15T15:00:28;19.83;;;5.20;;
70866;SDS011;58487;53.474;49.470;2022-12-15T15:06:00;13.30;;;4.28;;
70866;SDS011;58487;53.474;49.470;2022-12-15T15:08:34;15.60;;;5.00;;
70866;SDS011;58487;53.474;49.470;2022-12-15T15:11:22;14.67;;;5.27;;
70866;SDS011;58487;53.474;49.470;2022-12-15T15:13:57;13.63;;;5.22;;
70866;SDS011;58487;53.474;49.470;2022-12-15T15:16:25;16.65;;;5.47;;
70866;SDS011;58487;53.474;49.470;2022-12-15T15:18:52;16.98;;;5.70;;
70866;SDS011;58487;53.474;49.470;2022-12-15T15:21:26;15.10;;;4.57;;
70866;SDS011;58487;53.474;49.470;2022-12-15T15:24:36;14.27;;;5.00;;
70866;SDS011;58487;53.474;49.470;2022-12-15T15:26:48;13.73;;;4.63;;
70866;SDS011;58487;53.474;49.470;2022-12-15T15:34:37;13.23;;;4.68;;
70866;SDS011;58487;53.474;49.470;2022-12-15T15:37:04;11.63;;;4.70;;
70866;SDS011;58487;53.474;49.470;2022-12-15T15:39:38;15.13;;;4.78;;
70866;SDS011;58487;53.474;49.470;2022-12-15T15:42:09;13.55;;;4.55;;
70866;SDS011;58487;53.474;49.470;2022-12-15T15:44:36;13.15;;;4.47;;
70866;SDS011;58487;53.474;49.470;2022-12-15T15:47:03;18.00;;;5.18;;
70866;SDS011;58487;53.474;49.470;2022-12-15T15:49:29;14.70;;;5.27;;
70866;SDS011;58487;53.474;49.470;2022-12-15T15:51:58;12.95;;;4.30;;
70866;SDS011;58487;53.474;49.470;2022-12-15T15:54:26;15.50;;;4.72;;
70866;SDS011;58487;53.474;49.470;2022-12-15T15:56:59;17.17;;;5.05;;
70866;SDS011;58487;53.474;49.470;2022-12-15T15:59:25;13.70;;;4.83;;
70866;SDS011;58487;53.474;49.470;2022-12-15T16:01:53;13.73;;;4.90;;
70866;SDS011;58487;53.474;49.470;2022-12-15T16:04:24;14.00;;;4.25;;
70866;SDS011;58487;53.474;49.470;2022-12-15T16:06:51;13.63;;;4.88;;
70866;SDS011;58487;53.474;49.470;2022-12-15T16:09:17;15.63;;;5.60;;
70866;SDS011;58487;53.474;49.470;2022-12-15T16:11:43;14.68;;;4.90;;
70866;SDS011;58487;53.474;49.470;2022-12-15T16:14:11;13.77;;;5.23;;
70866;SDS011;58487;53.474;49.470;2022-12-15T16:16:38;14.77;;;5.10;;
70866;SDS011;58487;53.474;49.470;2022-12-15T16:19:04;14.88;;;5.22;;
70866;SDS011;58487;53.474;49.470;2022-12-15T16:21:32;13.88;;;4.60;;
70866;SDS011;58487;53.474;49.470;2022-12-15T16:24:01;14.88;;;5.00;;
70866;SDS011;58487;53.474;49.470;2022-12-15T16:26:32;14.13;;;5.33;;
70866;SDS011;58487;53.474;49.470;2022-12-15T16:29:02;16.50;;;5.85;;
70866;SDS011;58487;53.474;49.470;2022-12-15T16:31:32;15.75;;;5.43;;
70866;SDS011;58487;53.474;49.470;2022-12-15T16:34:01;17.70;;;5.80;;
70866;SDS011;58487;53.474;49.470;2022-12-15T16:36:28;17.70;;;5.30;;
70866;SDS011;58487;53.474;49.470;2022-12-15T16:38:59;17.80;;;5.63;;
70866;SDS011;58487;53.474;49.470;2022-12-15T16:41:26;17.33;;;5.57;;
70866;SDS011;58487;53.474;49.470;2022-12-15T16:43:52;14.63;;;5.13;;
70866;SDS011;58487;53.474;49.470;2022-12-15T16:46:18;20.55;;;5.63;;
70866;SDS011;58487;53.474;49.470;2022-12-15T16:48:44;16.05;;;5.35;;
70866;SDS011;58487;53.474;49.470;2022-12-15T16:51:24;18.37;;;6.13;;
70866;SDS011;58487;53.474;49.470;2022-12-15T16:53:59;18.38;;;5.55;;
70866;SDS011;58487;53.474;49.470;2022-12-15T16:56:25;16.08;;;4.82;;